createdAt,value
2023-01-28T00:01:42.471Z,43.95
2023-01-28T00:04:27.792Z,43.95
2023-01-28T00:07:12.988Z,43.99
2023-01-28T00:09:58.363Z,43.85
2023-01-28T00:12:43.560Z,43.95
2023-01-28T00:15:28.881Z,43.94
2023-01-28T00:18:14.617Z,44.10
2023-01-28T00:21:12.109Z,43.95
2023-01-28T00:23:57.628Z,44.00
2023-01-28T00:26:42.965Z,43.95
2023-01-28T00:29:28.320Z,44.03
2023-01-28T00:32:13.452Z,44.04
2023-01-28T00:34:58.738Z,43.95
2023-01-28T00:37:46.161Z,43.88
2023-01-28T00:40:31.982Z,43.94
2023-01-28T00:43:17.321Z,44.03
2023-01-28T00:46:02.853Z,44.01
2023-01-28T00:48:48.903Z,44.01
2023-01-28T00:51:34.513Z,43.86
2023-01-28T00:54:21.927Z,43.97
2023-01-28T00:57:08.084Z,44.16
2023-01-28T00:59:53.419Z,44.04
2023-01-28T01:02:41.974Z,44.01
2023-01-28T01:05:29.596Z,43.97
2023-01-28T01:08:14.809Z,43.97
2023-01-28T01:11:00.133Z,44.03
2023-01-28T01:13:49.572Z,44.04
2023-01-28T01:16:36.523Z,43.93
2023-01-28T01:19:21.669Z,43.94
2023-01-28T01:22:06.785Z,43.88
2023-01-28T01:24:52.491Z,44.00
2023-01-28T01:27:37.840Z,43.91
2023-01-28T01:30:23.780Z,43.93
2023-01-28T01:33:09.436Z,44.03
2023-01-28T01:35:55.216Z,44.04
2023-01-28T01:38:41.861Z,44.02
2023-01-28T01:41:33.439Z,44.02
2023-01-28T01:44:57.252Z,43.99
2023-01-28T01:48:00.598Z,44.01
2023-01-28T01:51:01.563Z,43.89
2023-01-28T01:53:52.533Z,44.12
2023-01-28T01:56:42.657Z,44.04
2023-01-28T01:59:31.444Z,44.21
2023-01-28T02:02:17.457Z,44.11
2023-01-28T02:05:04.167Z,44.00
2023-01-28T02:07:55.072Z,44.08
2023-01-28T02:10:40.517Z,43.94
2023-01-28T02:13:36.117Z,44.17
2023-01-28T02:16:22.322Z,44.13
2023-01-28T02:19:09.750Z,43.92
2023-01-28T02:22:15.672Z,44.01
2023-01-28T02:25:25.078Z,44.04
2023-01-28T02:28:34.218Z,43.96
2023-01-28T02:31:27.360Z,43.93
2023-01-28T02:34:36.266Z,44.02
2023-01-28T02:37:25.700Z,44.02
2023-01-28T02:40:20.606Z,43.97
2023-01-28T02:43:06.222Z,43.97
2023-01-28T02:46:10.353Z,43.93
2023-01-28T02:48:55.792Z,43.85
2023-01-28T02:51:56.616Z,43.88
2023-01-28T02:54:41.922Z,44.03
2023-01-28T02:58:01.383Z,44.14
2023-01-28T03:01:01.789Z,44.14
2023-01-28T03:04:15.627Z,44.50
2023-01-28T03:07:05.480Z,44.39
2023-01-28T03:09:52.633Z,44.55
2023-01-28T03:12:59.755Z,44.26
2023-01-28T03:16:07.580Z,44.33
2023-01-28T03:19:12.898Z,44.48
2023-01-28T03:22:16.733Z,44.47
2023-01-28T03:25:21.239Z,44.41
2023-01-28T03:28:32.170Z,44.42
2023-01-28T03:31:41.032Z,44.38
2023-01-28T03:34:44.826Z,44.60
2023-01-28T03:37:32.457Z,44.46
2023-01-28T03:41:06.472Z,44.45
2023-01-28T03:43:53.472Z,44.65
2023-01-28T03:46:40.053Z,44.33
2023-01-28T03:49:25.420Z,44.62
2023-01-28T03:52:10.690Z,44.66
2023-01-28T03:54:56.829Z,44.38
2023-01-28T03:57:42.282Z,44.53
2023-01-28T04:00:27.500Z,44.46
2023-01-28T04:03:19.937Z,44.43
2023-01-28T04:06:31.713Z,44.63
2023-01-28T04:09:45.594Z,44.42
2023-01-28T04:12:44.079Z,44.46
2023-01-28T04:15:31.086Z,44.48
2023-01-28T04:18:16.942Z,44.60
2023-01-28T04:21:03.235Z,44.50
2023-01-28T04:23:50.147Z,44.66
2023-01-28T04:26:35.235Z,44.50
2023-01-28T04:29:21.096Z,44.61
2023-01-28T04:32:11.464Z,44.46
2023-01-28T04:35:17.531Z,44.53
2023-01-28T04:38:24.017Z,44.32
2023-01-28T04:41:25.920Z,44.49
2023-01-28T04:44:11.185Z,44.56
2023-01-28T04:47:19.890Z,44.43
2023-01-28T04:50:44.594Z,44.40
2023-01-28T04:53:38.626Z,44.46
2023-01-28T04:56:42.852Z,44.43
2023-01-28T04:59:28.676Z,44.56
2023-01-28T05:02:14.960Z,44.42
2023-01-28T05:05:04.881Z,44.51
2023-01-28T05:08:00.139Z,44.52
2023-01-28T05:10:45.956Z,44.41
2023-01-28T05:13:32.048Z,44.52
2023-01-28T05:16:18.678Z,44.54
2023-01-28T05:19:04.117Z,44.60
2023-01-28T05:21:56.007Z,44.49
2023-01-28T05:24:50.383Z,44.61
2023-01-28T05:27:35.803Z,44.51
2023-01-28T05:30:22.228Z,44.70
2023-01-28T05:33:08.073Z,44.53
2023-01-28T05:35:53.509Z,44.53
2023-01-28T05:38:40.712Z,44.60
2023-01-28T05:41:26.183Z,44.53
2023-01-28T05:44:18.600Z,44.63
2023-01-28T05:47:16.077Z,44.66
2023-01-28T05:50:18.196Z,44.64
2023-01-28T05:53:23.447Z,42.78
2023-01-28T05:56:09.753Z,42.11
2023-01-28T05:58:56.654Z,42.24
2023-01-28T06:01:42.526Z,42.24
2023-01-28T06:04:27.771Z,40.42
2023-01-28T06:07:13.518Z,40.26
2023-01-28T06:10:01.464Z,40.32
2023-01-28T06:12:47.144Z,40.51
2023-01-28T06:15:51.428Z,40.96
2023-01-28T06:18:45.768Z,40.83
2023-01-28T06:21:31.594Z,41.10
2023-01-28T06:24:17.503Z,40.98
2023-01-28T06:27:02.935Z,41.72
2023-01-28T06:29:48.420Z,41.84
2023-01-28T06:32:35.420Z,42.15
2023-01-28T06:35:30.074Z,42.37
2023-01-28T06:38:19.915Z,42.43
2023-01-28T06:41:05.771Z,42.26
2023-01-28T06:43:51.471Z,42.54
2023-01-28T06:46:37.332Z,42.44
2023-01-28T06:49:23.185Z,42.88
2023-01-28T06:52:09.170Z,44.42
2023-01-28T06:54:55.331Z,45.01
2023-01-28T06:57:41.790Z,45.25
2023-01-28T07:00:27.141Z,45.31
2023-01-28T07:03:13.034Z,45.02
2023-01-28T07:05:58.393Z,44.61
2023-01-28T07:08:43.669Z,44.30
2023-01-28T07:11:29.109Z,43.98
2023-01-28T07:14:14.593Z,43.78
2023-01-28T07:17:00.015Z,43.63
2023-01-28T07:19:45.787Z,43.21
2023-01-28T07:22:30.944Z,43.05
2023-01-28T07:25:16.679Z,43.13
2023-01-28T07:28:02.648Z,42.67
2023-01-28T07:30:53.517Z,42.53
2023-01-28T07:33:39.151Z,42.59
2023-01-28T07:36:24.416Z,42.64
2023-01-28T07:39:10.219Z,43.01
2023-01-28T07:41:55.615Z,42.86
2023-01-28T07:44:57.984Z,43.64
2023-01-28T07:47:43.500Z,43.12
2023-01-28T07:50:30.940Z,43.33
2023-01-28T07:53:20.559Z,43.19
2023-01-28T07:56:08.768Z,43.09
2023-01-28T07:58:54.221Z,43.24
2023-01-28T08:01:40.046Z,43.22
2023-01-28T08:04:25.183Z,44.66
2023-01-28T08:07:10.600Z,45.63
2023-01-28T08:09:55.779Z,45.13
2023-01-28T08:12:41.150Z,44.83
2023-01-28T08:15:26.844Z,44.79
2023-01-28T08:18:15.499Z,44.57
2023-01-28T08:21:00.926Z,44.52
2023-01-28T08:23:46.565Z,45.13
2023-01-28T08:26:32.266Z,46.14
2023-01-28T08:29:17.810Z,45.40
2023-01-28T08:32:03.130Z,45.80
2023-01-28T08:34:48.798Z,46.62
2023-01-28T08:37:35.961Z,47.20
2023-01-28T08:40:22.283Z,46.91
2023-01-28T08:43:07.812Z,47.53
2023-01-28T08:45:54.585Z,47.20
2023-01-28T08:48:40.286Z,46.78
2023-01-28T08:51:26.647Z,46.62
2023-01-28T08:54:12.389Z,46.59
2023-01-28T08:56:58.729Z,46.72
2023-01-28T08:59:46.542Z,46.11
2023-01-28T09:02:32.596Z,46.20
2023-01-28T09:05:19.014Z,46.04
2023-01-28T09:08:10.626Z,45.76
2023-01-28T09:10:57.524Z,45.68
2023-01-28T09:13:43.089Z,46.13
2023-01-28T09:16:28.786Z,45.82
2023-01-28T09:19:15.785Z,45.81
2023-01-28T09:22:04.257Z,45.49
2023-01-28T09:24:50.056Z,45.38
2023-01-28T09:27:35.441Z,45.69
2023-01-28T09:30:21.356Z,45.88
2023-01-28T09:33:07.910Z,46.08
2023-01-28T09:35:53.518Z,46.16
2023-01-28T09:38:39.261Z,46.01
2023-01-28T09:41:49.789Z,46.23
2023-01-28T09:44:35.132Z,45.89
2023-01-28T09:47:27.120Z,45.84
2023-01-28T09:50:39.100Z,45.87
2023-01-28T09:53:31.092Z,46.00
2023-01-28T09:56:26.230Z,46.23
2023-01-28T09:59:22.911Z,46.49
2023-01-28T10:02:36.269Z,46.61
2023-01-28T10:05:46.578Z,47.03
2023-01-28T10:08:39.890Z,46.83
2023-01-28T10:11:25.331Z,45.96
2023-01-28T10:14:28.965Z,46.21
2023-01-28T10:17:26.899Z,46.41
2023-01-28T10:20:12.956Z,46.29
2023-01-28T10:23:08.175Z,45.88
2023-01-28T10:25:57.780Z,45.27
2023-01-28T10:28:43.506Z,44.80
2023-01-28T10:31:34.212Z,44.93
2023-01-28T10:34:20.979Z,44.14
2023-01-28T10:37:06.476Z,44.25
2023-01-28T10:39:56.836Z,43.74
2023-01-28T10:42:43.344Z,43.65
2023-01-28T10:45:34.865Z,43.56
2023-01-28T10:48:23.145Z,44.15
2023-01-28T10:51:08.848Z,44.56
2023-01-28T10:53:54.318Z,44.40
2023-01-28T10:56:43.312Z,44.80
2023-01-28T10:59:31.772Z,44.88
2023-01-28T11:02:33.220Z,44.55
2023-01-28T11:05:23.050Z,44.44
2023-01-28T11:08:18.949Z,44.23
2023-01-28T11:11:14.875Z,44.08
2023-01-28T11:14:01.293Z,44.21
2023-01-28T11:16:47.129Z,44.05
2023-01-28T11:19:35.819Z,44.10
2023-01-28T11:22:32.951Z,44.11
2023-01-28T11:25:27.312Z,43.94
2023-01-28T11:28:39.501Z,44.17
2023-01-28T11:31:26.588Z,43.91
2023-01-28T11:34:18.543Z,43.83
2023-01-28T11:37:12.523Z,44.04
2023-01-28T11:40:23.216Z,46.56
2023-01-28T11:43:09.429Z,47.90
2023-01-28T11:46:14.746Z,47.92
2023-01-28T11:49:12.101Z,47.82
2023-01-28T11:52:06.689Z,47.55
2023-01-28T11:55:18.187Z,47.65
2023-01-28T11:58:21.215Z,47.65
2023-01-28T12:01:20.843Z,47.32
2023-01-28T12:04:32.619Z,46.72
2023-01-28T12:07:54.337Z,46.28
2023-01-28T12:10:57.079Z,46.54
2023-01-28T12:14:35.080Z,46.54
2023-01-28T12:17:31.584Z,46.31
2023-01-28T12:20:31.285Z,45.39
2023-01-28T12:23:35.882Z,46.17
2023-01-28T12:26:47.177Z,47.07
2023-01-28T12:29:35.790Z,47.40
2023-01-28T12:32:32.671Z,47.13
2023-01-28T12:35:24.377Z,47.54
2023-01-28T12:38:20.075Z,47.54
2023-01-28T12:41:13.851Z,47.66
2023-01-28T12:44:03.576Z,47.54
2023-01-28T12:46:52.335Z,47.46
2023-01-28T12:49:50.685Z,47.22
2023-01-28T12:52:43.095Z,47.39
2023-01-28T12:55:45.591Z,47.34
2023-01-28T12:58:39.092Z,47.30
2023-01-28T13:01:35.251Z,46.96
2023-01-28T13:04:37.278Z,47.53
2023-01-28T13:07:34.426Z,44.72
2023-01-28T13:10:24.929Z,46.43
2023-01-28T13:13:42.415Z,46.57
2023-01-28T13:16:36.945Z,46.91
2023-01-28T13:19:37.030Z,46.97
2023-01-28T13:22:44.104Z,46.99
2023-01-28T13:25:29.429Z,46.98
2023-01-28T13:28:33.304Z,46.93
2023-01-28T13:31:20.934Z,46.91
2023-01-28T13:34:08.591Z,46.81
2023-01-28T13:36:54.905Z,46.78
2023-01-28T13:39:48.766Z,46.87
2023-01-28T13:42:34.901Z,46.82
2023-01-28T13:45:23.228Z,46.86
2023-01-28T13:48:19.450Z,46.65
2023-01-28T13:51:16.484Z,46.67
2023-01-28T13:54:14.111Z,46.27
2023-01-28T13:56:59.584Z,46.04
2023-01-28T14:00:27.136Z,46.10
2023-01-28T14:03:30.971Z,45.53
2023-01-28T14:06:28.603Z,45.77
2023-01-28T14:10:00.113Z,45.75
2023-01-28T14:12:49.941Z,45.99
2023-01-28T14:16:00.732Z,46.14
2023-01-28T14:18:48.725Z,46.28
2023-01-28T14:21:35.869Z,46.14
2023-01-28T14:24:21.929Z,46.21
2023-01-28T14:27:18.407Z,46.29
2023-01-28T14:30:25.831Z,46.20
2023-01-28T14:33:12.537Z,46.35
2023-01-28T14:35:58.233Z,46.15
2023-01-28T14:38:45.449Z,46.40
2023-01-28T14:41:31.136Z,46.56
2023-01-28T14:44:37.039Z,46.78
2023-01-28T14:47:37.555Z,46.85
2023-01-28T14:50:50.497Z,47.08
2023-01-28T14:54:09.897Z,47.08
2023-01-28T14:57:26.041Z,47.33
2023-01-28T15:00:24.031Z,46.94
2023-01-28T15:03:24.962Z,46.73
2023-01-28T15:06:17.164Z,46.53
2023-01-28T15:09:08.664Z,46.66
2023-01-28T15:11:57.864Z,46.91
2023-01-28T15:14:44.700Z,47.00
2023-01-28T15:17:30.201Z,47.13
2023-01-28T15:20:23.014Z,46.74
2023-01-28T15:23:09.126Z,46.05
2023-01-28T15:25:55.519Z,46.19
2023-01-28T15:28:43.398Z,46.18
2023-01-28T15:31:32.737Z,46.18
2023-01-28T15:34:20.591Z,46.17
2023-01-28T15:37:05.918Z,46.32
2023-01-28T15:40:09.130Z,46.38
2023-01-28T15:42:57.672Z,46.20
2023-01-28T15:45:48.092Z,46.24
2023-01-28T15:48:35.489Z,46.10
2023-01-28T15:51:24.909Z,45.79
2023-01-28T15:54:11.121Z,45.58
2023-01-28T15:56:57.256Z,45.45
2023-01-28T15:59:44.883Z,45.30
2023-01-28T16:02:31.789Z,45.27
2023-01-28T16:05:43.056Z,45.25
2023-01-28T16:08:37.041Z,45.37
2023-01-28T16:11:26.383Z,45.57
2023-01-28T16:14:27.529Z,45.97
2023-01-28T16:17:20.264Z,45.60
2023-01-28T16:20:20.254Z,45.92
2023-01-28T16:23:21.905Z,45.85
2023-01-28T16:26:26.725Z,46.15
2023-01-28T16:29:16.006Z,45.97
2023-01-28T16:32:04.284Z,46.16
2023-01-28T16:34:50.109Z,46.03
2023-01-28T16:37:40.779Z,46.24
2023-01-28T16:40:29.721Z,46.25
2023-01-28T16:43:17.470Z,46.35
2023-01-28T16:46:04.181Z,45.96
2023-01-28T16:48:51.625Z,46.32
2023-01-28T16:51:41.007Z,45.96
2023-01-28T16:54:27.359Z,46.13
2023-01-28T16:57:22.231Z,45.73
2023-01-28T17:00:08.746Z,46.47
2023-01-28T17:02:55.037Z,46.34
2023-01-28T17:05:40.174Z,45.76
2023-01-28T17:08:25.415Z,45.92
2023-01-28T17:11:10.709Z,45.56
2023-01-28T17:13:55.962Z,45.43
2023-01-28T17:16:41.672Z,45.98
2023-01-28T17:19:26.976Z,45.68
2023-01-28T17:22:12.308Z,45.40
2023-01-28T17:24:57.484Z,45.48
2023-01-28T17:27:42.853Z,45.13
2023-01-28T17:30:28.189Z,45.20
2023-01-28T17:33:13.389Z,45.30
2023-01-28T17:35:58.926Z,45.50
2023-01-28T17:38:45.668Z,45.48
2023-01-28T17:41:30.966Z,45.42
2023-01-28T17:44:18.889Z,45.27
2023-01-28T17:47:04.254Z,45.26
2023-01-28T17:49:49.494Z,45.23
2023-01-28T17:52:34.968Z,45.19
2023-01-28T17:55:21.904Z,44.80
2023-01-28T17:58:08.628Z,44.89
2023-01-28T18:00:54.492Z,44.89
2023-01-28T18:03:41.279Z,44.89
2023-01-28T18:06:32.646Z,44.70
2023-01-28T18:09:19.424Z,44.81
2023-01-28T18:12:06.248Z,44.80
2023-01-28T18:14:51.939Z,44.92
2023-01-28T18:17:38.270Z,44.83
2023-01-28T18:20:24.335Z,44.80
2023-01-28T18:23:10.369Z,44.72
2023-01-28T18:26:01.763Z,44.49
2023-01-28T18:28:48.576Z,44.47
2023-01-28T18:31:34.741Z,44.55
2023-01-28T18:34:20.800Z,44.55
2023-01-28T18:37:13.069Z,44.43
2023-01-28T18:39:58.480Z,44.56
2023-01-28T18:42:43.620Z,44.08
2023-01-28T18:45:29.219Z,43.85
2023-01-28T18:48:15.177Z,43.68
2023-01-28T18:51:00.417Z,44.16
2023-01-28T18:53:45.802Z,44.10
2023-01-28T18:56:33.053Z,44.08
2023-01-28T18:59:18.767Z,43.93
2023-01-28T19:02:04.572Z,43.75
2023-01-28T19:04:49.983Z,44.31
2023-01-28T19:07:35.456Z,44.11
2023-01-28T19:10:23.686Z,44.26
2023-01-28T19:13:09.724Z,44.26
2023-01-28T19:15:56.436Z,44.55
2023-01-28T19:18:42.141Z,44.96
2023-01-28T19:21:29.149Z,44.80
2023-01-28T19:24:14.993Z,44.54
2023-01-28T19:27:00.106Z,44.64
2023-01-28T19:29:45.469Z,44.81
2023-01-28T19:32:30.688Z,44.78
2023-01-28T19:35:16.579Z,44.34
2023-01-28T19:38:03.361Z,44.20
2023-01-28T19:40:48.907Z,44.56
2023-01-28T19:43:35.657Z,44.63
2023-01-28T19:46:21.426Z,44.73
2023-01-28T19:49:06.740Z,44.54
2023-01-28T19:51:52.367Z,44.65
2023-01-28T19:54:37.736Z,44.66
2023-01-28T19:57:23.085Z,44.55
2023-01-28T20:00:09.373Z,44.63
2023-01-28T20:02:54.776Z,44.63
2023-01-28T20:05:40.198Z,44.75
2023-01-28T20:08:25.455Z,44.57
2023-01-28T20:11:15.904Z,44.57
2023-01-28T20:14:01.464Z,44.60
2023-01-28T20:16:47.409Z,44.59
2023-01-28T20:19:34.934Z,44.37
2023-01-28T20:22:21.461Z,44.42
2023-01-28T20:25:08.611Z,44.24
2023-01-28T20:27:54.269Z,44.47
2023-01-28T20:30:39.906Z,44.07
2023-01-28T20:33:25.128Z,43.87
2023-01-28T20:36:12.566Z,43.96
2023-01-28T20:38:58.583Z,44.02
2023-01-28T20:41:44.070Z,44.06
2023-01-28T20:44:32.162Z,43.98
2023-01-28T20:47:17.458Z,44.02
2023-01-28T20:50:02.841Z,43.95
2023-01-28T20:52:48.408Z,43.90
2023-01-28T20:55:33.689Z,44.05
2023-01-28T20:58:19.529Z,43.91
2023-01-28T21:01:05.089Z,43.78
2023-01-28T21:03:51.116Z,43.75
2023-01-28T21:06:36.686Z,43.67
2023-01-28T21:09:25.383Z,43.43
2023-01-28T21:12:10.792Z,43.27
2023-01-28T21:14:56.867Z,43.37
2023-01-28T21:17:42.446Z,43.14
2023-01-28T21:20:29.323Z,42.90
2023-01-28T21:23:15.717Z,43.47
2023-01-28T21:26:03.485Z,43.72
2023-01-28T21:28:49.095Z,43.93
2023-01-28T21:31:34.513Z,43.94
2023-01-28T21:34:20.022Z,43.94
2023-01-28T21:37:05.408Z,44.42
2023-01-28T21:39:50.561Z,44.36
2023-01-28T21:42:35.873Z,44.45
2023-01-28T21:45:21.124Z,44.36
2023-01-28T21:48:06.703Z,44.48
2023-01-28T21:51:11.400Z,44.64
2023-01-28T21:53:56.692Z,44.46
2023-01-28T21:56:43.846Z,44.49
2023-01-28T21:59:29.891Z,44.40
2023-01-28T22:02:15.688Z,44.40
2023-01-28T22:05:00.913Z,44.32
2023-01-28T22:07:46.202Z,44.42
2023-01-28T22:10:31.501Z,44.01
2023-01-28T22:13:17.104Z,43.73
2023-01-28T22:16:02.821Z,43.61
2023-01-28T22:18:50.374Z,43.44
2023-01-28T22:21:41.309Z,43.59
2023-01-28T22:24:27.505Z,43.24
2023-01-28T22:27:14.148Z,43.42
2023-01-28T22:29:59.272Z,43.51
2023-01-28T22:32:44.606Z,43.43
2023-01-28T22:35:30.304Z,43.54
2023-01-28T22:38:15.632Z,43.42
2023-01-28T22:41:09.674Z,43.34
2023-01-28T22:43:55.329Z,43.42
2023-01-28T22:46:40.639Z,43.52
2023-01-28T22:49:26.762Z,43.54
2023-01-28T22:52:12.203Z,43.49
2023-01-28T22:54:57.559Z,43.49
2023-01-28T22:57:42.731Z,43.54
2023-01-28T23:00:28.230Z,43.56
2023-01-28T23:03:14.158Z,43.64
2023-01-28T23:06:02.228Z,43.65
2023-01-28T23:08:49.500Z,43.77
2023-01-28T23:11:35.705Z,43.83
2023-01-28T23:14:39.519Z,43.72
2023-01-28T23:17:43.280Z,43.85
2023-01-28T23:20:47.204Z,43.93
2023-01-28T23:23:51.145Z,43.78
2023-01-28T23:26:36.270Z,43.82
2023-01-28T23:29:24.831Z,43.87
2023-01-28T23:32:11.222Z,43.95
2023-01-28T23:34:56.842Z,43.94
2023-01-28T23:37:42.458Z,43.88
2023-01-28T23:40:27.839Z,43.94
2023-01-28T23:43:13.064Z,44.04
2023-01-28T23:45:58.397Z,44.04
2023-01-28T23:48:43.735Z,43.97
2023-01-28T23:51:29.034Z,43.91
2023-01-28T23:54:14.284Z,44.06
2023-01-28T23:57:00.644Z,44.06
2023-01-28T23:59:45.922Z,44.08
